sensor_id;sensor_type;location;lat;lon;timestamp;P1;durP1;ratioP1;P2;durP2;ratioP2
36995;SDS011;22905;50.340;10.776;2024-01-27T00:03:56;11.10;;;4.15;;
36995;SDS011;22905;50.340;10.776;2024-01-27T00:08:58;15.80;;;4.10;;
36995;SDS011;22905;50.340;10.776;2024-01-27T00:13:58;11.45;;;4.40;;
36995;SDS011;22905;50.340;10.776;2024-01-27T00:19:01;8.05;;;3.92;;
36995;SDS011;22905;50.340;10.776;2024-01-27T00:24:01;6.53;;;3.17;;
36995;SDS011;22905;50.340;10.776;2024-01-27T00:29:03;12.87;;;3.80;;
36995;SDS011;22905;50.340;10.776;2024-01-27T00:34:03;16.80;;;4.13;;
36995;SDS011;22905;50.340;10.776;2024-01-27T00:39:04;12.85;;;4.70;;
36995;SDS011;22905;50.340;10.776;2024-01-27T00:44:04;16.75;;;4.30;;
36995;SDS011;22905;50.340;10.776;2024-01-27T00:49:05;14.88;;;3.95;;
36995;SDS011;22905;50.340;10.776;2024-01-27T00:54:05;20.77;;;4.30;;
36995;SDS011;22905;50.340;10.776;2024-01-27T00:59:05;10.98;;;3.83;;
36995;SDS011;22905;50.340;10.776;2024-01-27T01:04:06;12.90;;;4.07;;
36995;SDS011;22905;50.340;10.776;2024-01-27T01:09:07;14.32;;;4.63;;
36995;SDS011;22905;50.340;10.776;2024-01-27T01:14:08;8.15;;;3.70;;
36995;SDS011;22905;50.340;10.776;2024-01-27T01:19:08;17.40;;;5.43;;
36995;SDS011;22905;50.340;10.776;2024-01-27T01:24:09;11.18;;;4.28;;
36995;SDS011;22905;50.340;10.776;2024-01-27T01:29:09;14.20;;;4.40;;
36995;SDS011;22905;50.340;10.776;2024-01-27T01:34:09;15.05;;;4.43;;
36995;SDS011;22905;50.340;10.776;2024-01-27T01:39:10;16.67;;;5.35;;
36995;SDS011;22905;50.340;10.776;2024-01-27T01:44:10;17.48;;;4.15;;
36995;SDS011;22905;50.340;10.776;2024-01-27T01:49:11;13.50;;;4.32;;
36995;SDS011;22905;50.340;10.776;2024-01-27T01:54:11;11.90;;;4.63;;
36995;SDS011;22905;50.340;10.776;2024-01-27T01:59:12;14.75;;;4.30;;
36995;SDS011;22905;50.340;10.776;2024-01-27T02:04:12;14.27;;;4.37;;
36995;SDS011;22905;50.340;10.776;2024-01-27T02:09:13;21.20;;;4.87;;
36995;SDS011;22905;50.340;10.776;2024-01-27T02:14:13;18.05;;;5.43;;
36995;SDS011;22905;50.340;10.776;2024-01-27T02:19:13;16.38;;;4.45;;
36995;SDS011;22905;50.340;10.776;2024-01-27T02:24:14;18.40;;;4.60;;
36995;SDS011;22905;50.340;10.776;2024-01-27T02:29:14;13.07;;;4.07;;
36995;SDS011;22905;50.340;10.776;2024-01-27T02:34:14;11.60;;;4.65;;
36995;SDS011;22905;50.340;10.776;2024-01-27T02:39:15;23.35;;;5.28;;
36995;SDS011;22905;50.340;10.776;2024-01-27T02:44:15;16.92;;;5.05;;
36995;SDS011;22905;50.340;10.776;2024-01-27T02:49:15;17.20;;;4.65;;
36995;SDS011;22905;50.340;10.776;2024-01-27T02:54:15;14.80;;;4.83;;
36995;SDS011;22905;50.340;10.776;2024-01-27T02:59:16;14.80;;;4.70;;
36995;SDS011;22905;50.340;10.776;2024-01-27T03:10:13;15.52;;;4.60;;
36995;SDS011;22905;50.340;10.776;2024-01-27T03:15:13;22.33;;;4.57;;
36995;SDS011;22905;50.340;10.776;2024-01-27T03:20:13;16.60;;;4.50;;
36995;SDS011;22905;50.340;10.776;2024-01-27T03:25:14;26.67;;;7.13;;
36995;SDS011;22905;50.340;10.776;2024-01-27T03:30:14;12.40;;;3.70;;
36995;SDS011;22905;50.340;10.776;2024-01-27T03:35:14;15.47;;;4.03;;
36995;SDS011;22905;50.340;10.776;2024-01-27T03:40:15;14.27;;;4.45;;
36995;SDS011;22905;50.340;10.776;2024-01-27T03:45:15;14.40;;;3.95;;
36995;SDS011;22905;50.340;10.776;2024-01-27T03:50:15;17.92;;;4.55;;
36995;SDS011;22905;50.340;10.776;2024-01-27T03:55:15;14.32;;;5.97;;
36995;SDS011;22905;50.340;10.776;2024-01-27T04:00:16;27.93;;;9.03;;
36995;SDS011;22905;50.340;10.776;2024-01-27T04:05:16;26.02;;;7.05;;
36995;SDS011;22905;50.340;10.776;2024-01-27T04:10:17;22.97;;;7.83;;
36995;SDS011;22905;50.340;10.776;2024-01-27T04:15:18;14.23;;;6.13;;
36995;SDS011;22905;50.340;10.776;2024-01-27T04:20:18;20.70;;;7.40;;
36995;SDS011;22905;50.340;10.776;2024-01-27T04:25:19;20.20;;;6.70;;
36995;SDS011;22905;50.340;10.776;2024-01-27T04:30:19;17.17;;;5.90;;
36995;SDS011;22905;50.340;10.776;2024-01-27T04:35:20;14.20;;;5.85;;
36995;SDS011;22905;50.340;10.776;2024-01-27T04:40:20;18.30;;;4.97;;
36995;SDS011;22905;50.340;10.776;2024-01-27T04:45:20;26.38;;;5.25;;
36995;SDS011;22905;50.340;10.776;2024-01-27T04:50:21;13.75;;;5.50;;
36995;SDS011;22905;50.340;10.776;2024-01-27T04:55:21;19.43;;;6.33;;
36995;SDS011;22905;50.340;10.776;2024-01-27T05:00:21;16.90;;;6.22;;
36995;SDS011;22905;50.340;10.776;2024-01-27T05:05:21;18.02;;;5.50;;
36995;SDS011;22905;50.340;10.776;2024-01-27T05:10:22;21.47;;;5.73;;
36995;SDS011;22905;50.340;10.776;2024-01-27T05:15:22;15.50;;;5.85;;
36995;SDS011;22905;50.340;10.776;2024-01-27T05:20:23;32.42;;;6.03;;
36995;SDS011;22905;50.340;10.776;2024-01-27T05:25:23;16.77;;;5.95;;
36995;SDS011;22905;50.340;10.776;2024-01-27T05:30:23;15.57;;;5.75;;
36995;SDS011;22905;50.340;10.776;2024-01-27T05:35:23;20.80;;;6.03;;
36995;SDS011;22905;50.340;10.776;2024-01-27T05:40:25;20.93;;;6.37;;
36995;SDS011;22905;50.340;10.776;2024-01-27T05:45:25;18.67;;;6.20;;
36995;SDS011;22905;50.340;10.776;2024-01-27T05:50:26;22.30;;;5.97;;
36995;SDS011;22905;50.340;10.776;2024-01-27T05:55:27;26.08;;;7.03;;
36995;SDS011;22905;50.340;10.776;2024-01-27T06:00:27;13.40;;;5.78;;
36995;SDS011;22905;50.340;10.776;2024-01-27T06:05:27;20.43;;;5.80;;
36995;SDS011;22905;50.340;10.776;2024-01-27T06:10:28;19.70;;;6.70;;
36995;SDS011;22905;50.340;10.776;2024-01-27T06:15:28;15.17;;;5.90;;
36995;SDS011;22905;50.340;10.776;2024-01-27T06:20:28;15.70;;;5.53;;
36995;SDS011;22905;50.340;10.776;2024-01-27T06:25:29;25.43;;;6.27;;
36995;SDS011;22905;50.340;10.776;2024-01-27T06:30:29;21.45;;;7.03;;
36995;SDS011;22905;50.340;10.776;2024-01-27T06:35:29;30.30;;;6.33;;
36995;SDS011;22905;50.340;10.776;2024-01-27T06:40:29;17.60;;;7.20;;
36995;SDS011;22905;50.340;10.776;2024-01-27T06:45:30;26.60;;;10.43;;
36995;SDS011;22905;50.340;10.776;2024-01-27T06:50:30;24.40;;;8.17;;
36995;SDS011;22905;50.340;10.776;2024-01-27T06:55:30;29.03;;;11.57;;
36995;SDS011;22905;50.340;10.776;2024-01-27T07:00:32;28.38;;;8.32;;
36995;SDS011;22905;50.340;10.776;2024-01-27T07:05:32;24.67;;;11.00;;
36995;SDS011;22905;50.340;10.776;2024-01-27T07:10:38;25.75;;;8.52;;
36995;SDS011;22905;50.340;10.776;2024-01-27T07:15:38;27.57;;;11.60;;
36995;SDS011;22905;50.340;10.776;2024-01-27T07:20:39;22.97;;;8.73;;
36995;SDS011;22905;50.340;10.776;2024-01-27T07:25:40;32.97;;;12.68;;
36995;SDS011;22905;50.340;10.776;2024-01-27T07:30:40;22.73;;;9.65;;
36995;SDS011;22905;50.340;10.776;2024-01-27T07:35:40;33.85;;;12.32;;
36995;SDS011;22905;50.340;10.776;2024-01-27T07:40:41;22.00;;;7.72;;
36995;SDS011;22905;50.340;10.776;2024-01-27T07:45:41;32.27;;;9.00;;
36995;SDS011;22905;50.340;10.776;2024-01-27T07:50:41;24.90;;;11.83;;
36995;SDS011;22905;50.340;10.776;2024-01-27T07:55:45;32.90;;;10.82;;
36995;SDS011;22905;50.340;10.776;2024-01-27T08:00:46;23.03;;;10.00;;
36995;SDS011;22905;50.340;10.776;2024-01-27T08:05:46;35.42;;;11.15;;
36995;SDS011;22905;50.340;10.776;2024-01-27T08:10:46;34.67;;;12.20;;
36995;SDS011;22905;50.340;10.776;2024-01-27T08:15:47;28.88;;;10.95;;
36995;SDS011;22905;50.340;10.776;2024-01-27T08:20:47;28.37;;;10.80;;
36995;SDS011;22905;50.340;10.776;2024-01-27T08:25:47;36.20;;;12.40;;
36995;SDS011;22905;50.340;10.776;2024-01-27T08:30:52;60.53;;;20.45;;
36995;SDS011;22905;50.340;10.776;2024-01-27T08:35:52;42.13;;;17.33;;
36995;SDS011;22905;50.340;10.776;2024-01-27T08:40:52;42.50;;;14.87;;
36995;SDS011;22905;50.340;10.776;2024-01-27T08:45:53;35.08;;;11.88;;
36995;SDS011;22905;50.340;10.776;2024-01-27T08:50:54;25.60;;;11.33;;
36995;SDS011;22905;50.340;10.776;2024-01-27T08:55:55;29.93;;;10.00;;
36995;SDS011;22905;50.340;10.776;2024-01-27T09:00:55;33.80;;;11.23;;
36995;SDS011;22905;50.340;10.776;2024-01-27T09:05:55;33.23;;;11.13;;
36995;SDS011;22905;50.340;10.776;2024-01-27T09:10:56;25.10;;;8.97;;
36995;SDS011;22905;50.340;10.776;2024-01-27T09:15:57;24.58;;;8.43;;
36995;SDS011;22905;50.340;10.776;2024-01-27T09:20:58;23.90;;;7.00;;
36995;SDS011;22905;50.340;10.776;2024-01-27T09:25:59;17.03;;;6.37;;
36995;SDS011;22905;50.340;10.776;2024-01-27T09:30:59;15.87;;;6.50;;
36995;SDS011;22905;50.340;10.776;2024-01-27T09:35:59;24.70;;;6.65;;
36995;SDS011;22905;50.340;10.776;2024-01-27T09:40:59;30.25;;;7.47;;
36995;SDS011;22905;50.340;10.776;2024-01-27T09:46:00;30.00;;;5.88;;
36995;SDS011;22905;50.340;10.776;2024-01-27T09:51:01;25.60;;;5.97;;
36995;SDS011;22905;50.340;10.776;2024-01-27T09:56:02;29.50;;;4.78;;
36995;SDS011;22905;50.340;10.776;2024-01-27T10:01:03;26.98;;;7.00;;
36995;SDS011;22905;50.340;10.776;2024-01-27T10:06:04;22.45;;;4.70;;
36995;SDS011;22905;50.340;10.776;2024-01-27T10:11:08;19.98;;;4.75;;
36995;SDS011;22905;50.340;10.776;2024-01-27T10:16:09;24.40;;;4.82;;
36995;SDS011;22905;50.340;10.776;2024-01-27T10:21:18;22.30;;;5.47;;
36995;SDS011;22905;50.340;10.776;2024-01-27T10:26:20;19.67;;;5.13;;
36995;SDS011;22905;50.340;10.776;2024-01-27T10:31:20;17.40;;;4.50;;
36995;SDS011;22905;50.340;10.776;2024-01-27T10:36:26;20.38;;;5.13;;
36995;SDS011;22905;50.340;10.776;2024-01-27T10:41:27;43.90;;;8.75;;
36995;SDS011;22905;50.340;10.776;2024-01-27T10:46:28;21.13;;;5.15;;
36995;SDS011;22905;50.340;10.776;2024-01-27T10:51:32;23.15;;;5.50;;
36995;SDS011;22905;50.340;10.776;2024-01-27T10:56:33;29.58;;;5.13;;
36995;SDS011;22905;50.340;10.776;2024-01-27T11:01:35;17.40;;;4.70;;
36995;SDS011;22905;50.340;10.776;2024-01-27T11:06:37;14.23;;;4.40;;
36995;SDS011;22905;50.340;10.776;2024-01-27T11:11:38;23.52;;;5.35;;
36995;SDS011;22905;50.340;10.776;2024-01-27T11:16:39;22.40;;;5.65;;
36995;SDS011;22905;50.340;10.776;2024-01-27T11:21:43;18.25;;;4.95;;
36995;SDS011;22905;50.340;10.776;2024-01-27T11:26:44;25.13;;;4.03;;
36995;SDS011;22905;50.340;10.776;2024-01-27T11:31:45;18.67;;;4.55;;
36995;SDS011;22905;50.340;10.776;2024-01-27T11:36:46;27.63;;;5.43;;
36995;SDS011;22905;50.340;10.776;2024-01-27T11:41:47;21.05;;;4.20;;
36995;SDS011;22905;50.340;10.776;2024-01-27T11:46:47;33.15;;;4.68;;
36995;SDS011;22905;50.340;10.776;2024-01-27T11:51:47;18.52;;;4.18;;
36995;SDS011;22905;50.340;10.776;2024-01-27T11:56:48;18.00;;;4.75;;
36995;SDS011;22905;50.340;10.776;2024-01-27T12:01:48;16.73;;;4.93;;
36995;SDS011;22905;50.340;10.776;2024-01-27T12:06:49;23.55;;;4.60;;
36995;SDS011;22905;50.340;10.776;2024-01-27T12:11:49;20.47;;;4.63;;
36995;SDS011;22905;50.340;10.776;2024-01-27T12:16:50;15.38;;;4.25;;
36995;SDS011;22905;50.340;10.776;2024-01-27T12:21:53;25.33;;;5.10;;
36995;SDS011;22905;50.340;10.776;2024-01-27T12:26:55;18.48;;;4.00;;
36995;SDS011;22905;50.340;10.776;2024-01-27T12:31:57;14.35;;;3.58;;
36995;SDS011;22905;50.340;10.776;2024-01-27T12:36:57;14.90;;;4.13;;
36995;SDS011;22905;50.340;10.776;2024-01-27T12:41:57;16.85;;;4.30;;
36995;SDS011;22905;50.340;10.776;2024-01-27T12:46:58;16.85;;;5.03;;
36995;SDS011;22905;50.340;10.776;2024-01-27T12:51:58;17.48;;;5.13;;
36995;SDS011;22905;50.340;10.776;2024-01-27T12:56:58;18.80;;;5.18;;
36995;SDS011;22905;50.340;10.776;2024-01-27T13:02:00;22.38;;;4.70;;
36995;SDS011;22905;50.340;10.776;2024-01-27T13:07:01;21.33;;;4.18;;
36995;SDS011;22905;50.340;10.776;2024-01-27T13:12:01;9.80;;;3.35;;
36995;SDS011;22905;50.340;10.776;2024-01-27T13:17:02;14.38;;;3.60;;
36995;SDS011;22905;50.340;10.776;2024-01-27T13:22:03;22.88;;;4.25;;
36995;SDS011;22905;50.340;10.776;2024-01-27T13:27:04;17.45;;;3.95;;
36995;SDS011;22905;50.340;10.776;2024-01-27T13:32:05;21.75;;;4.65;;
36995;SDS011;22905;50.340;10.776;2024-01-27T13:37:06;15.32;;;4.32;;
36995;SDS011;22905;50.340;10.776;2024-01-27T13:42:06;17.23;;;4.90;;
36995;SDS011;22905;50.340;10.776;2024-01-27T13:47:07;11.80;;;3.58;;
36995;SDS011;22905;50.340;10.776;2024-01-27T13:57:09;27.83;;;7.25;;
36995;SDS011;22905;50.340;10.776;2024-01-27T14:02:10;16.73;;;5.38;;
36995;SDS011;22905;50.340;10.776;2024-01-27T14:07:10;27.88;;;6.85;;
36995;SDS011;22905;50.340;10.776;2024-01-27T14:12:11;21.80;;;5.90;;
36995;SDS011;22905;50.340;10.776;2024-01-27T14:17:11;21.83;;;4.60;;
36995;SDS011;22905;50.340;10.776;2024-01-27T14:22:11;25.30;;;6.53;;
36995;SDS011;22905;50.340;10.776;2024-01-27T14:27:12;27.63;;;6.93;;
36995;SDS011;22905;50.340;10.776;2024-01-27T14:32:13;23.60;;;4.78;;
36995;SDS011;22905;50.340;10.776;2024-01-27T14:37:14;18.17;;;6.00;;
36995;SDS011;22905;50.340;10.776;2024-01-27T14:42:16;13.50;;;3.03;;
36995;SDS011;22905;50.340;10.776;2024-01-27T14:47:19;22.45;;;3.70;;
36995;SDS011;22905;50.340;10.776;2024-01-27T14:52:20;15.32;;;3.17;;
36995;SDS011;22905;50.340;10.776;2024-01-27T14:57:22;21.52;;;6.35;;
36995;SDS011;22905;50.340;10.776;2024-01-27T15:02:22;155.70;;;41.30;;
36995;SDS011;22905;50.340;10.776;2024-01-27T15:07:22;62.90;;;21.08;;
36995;SDS011;22905;50.340;10.776;2024-01-27T15:12:27;30.42;;;10.00;;
36995;SDS011;22905;50.340;10.776;2024-01-27T15:17:28;30.08;;;8.10;;
36995;SDS011;22905;50.340;10.776;2024-01-27T15:22:28;24.85;;;7.13;;
36995;SDS011;22905;50.340;10.776;2024-01-27T15:27:28;53.00;;;7.47;;
36995;SDS011;22905;50.340;10.776;2024-01-27T15:32:29;26.57;;;5.53;;
36995;SDS011;22905;50.340;10.776;2024-01-27T15:37:29;17.67;;;5.50;;
36995;SDS011;22905;50.340;10.776;2024-01-27T15:42:29;13.20;;;4.88;;
36995;SDS011;22905;50.340;10.776;2024-01-27T15:47:30;16.27;;;5.30;;
36995;SDS011;22905;50.340;10.776;2024-01-27T15:52:30;10.63;;;5.43;;
36995;SDS011;22905;50.340;10.776;2024-01-27T15:57:31;18.65;;;5.72;;
36995;SDS011;22905;50.340;10.776;2024-01-27T16:02:32;22.10;;;7.45;;
36995;SDS011;22905;50.340;10.776;2024-01-27T16:07:32;20.85;;;7.13;;
36995;SDS011;22905;50.340;10.776;2024-01-27T16:12:33;20.77;;;7.67;;
36995;SDS011;22905;50.340;10.776;2024-01-27T16:17:33;31.37;;;8.87;;
36995;SDS011;22905;50.340;10.776;2024-01-27T16:22:33;36.33;;;9.43;;
36995;SDS011;22905;50.340;10.776;2024-01-27T16:27:34;31.50;;;7.47;;
36995;SDS011;22905;50.340;10.776;2024-01-27T16:32:35;23.70;;;9.52;;
36995;SDS011;22905;50.340;10.776;2024-01-27T16:37:35;24.80;;;8.60;;
36995;SDS011;22905;50.340;10.776;2024-01-27T16:42:35;24.13;;;9.03;;
36995;SDS011;22905;50.340;10.776;2024-01-27T16:47:37;22.65;;;10.48;;
36995;SDS011;22905;50.340;10.776;2024-01-27T16:52:37;31.30;;;12.83;;
36995;SDS011;22905;50.340;10.776;2024-01-27T16:57:37;42.20;;;18.55;;
36995;SDS011;22905;50.340;10.776;2024-01-27T17:02:38;50.33;;;20.13;;
36995;SDS011;22905;50.340;10.776;2024-01-27T17:07:38;54.85;;;20.17;;
36995;SDS011;22905;50.340;10.776;2024-01-27T17:12:38;39.58;;;18.83;;
36995;SDS011;22905;50.340;10.776;2024-01-27T17:17:39;48.15;;;21.42;;
36995;SDS011;22905;50.340;10.776;2024-01-27T17:22:39;95.17;;;36.67;;
36995;SDS011;22905;50.340;10.776;2024-01-27T17:27:39;101.15;;;40.63;;
36995;SDS011;22905;50.340;10.776;2024-01-27T17:32:40;87.73;;;37.70;;
36995;SDS011;22905;50.340;10.776;2024-01-27T17:37:42;99.30;;;40.97;;
36995;SDS011;22905;50.340;10.776;2024-01-27T17:42:42;102.03;;;37.40;;
36995;SDS011;22905;50.340;10.776;2024-01-27T17:47:43;65.57;;;28.00;;
36995;SDS011;22905;50.340;10.776;2024-01-27T17:52:44;52.28;;;18.88;;
36995;SDS011;22905;50.340;10.776;2024-01-27T17:57:44;49.20;;;18.27;;
36995;SDS011;22905;50.340;10.776;2024-01-27T18:02:45;57.97;;;21.10;;
36995;SDS011;22905;50.340;10.776;2024-01-27T18:07:46;51.10;;;18.98;;
36995;SDS011;22905;50.340;10.776;2024-01-27T18:12:46;42.67;;;18.50;;
36995;SDS011;22905;50.340;10.776;2024-01-27T18:17:47;46.28;;;20.45;;
36995;SDS011;22905;50.340;10.776;2024-01-27T18:27:50;40.80;;;15.50;;
36995;SDS011;22905;50.340;10.776;2024-01-27T18:32:50;53.05;;;15.20;;
36995;SDS011;22905;50.340;10.776;2024-01-27T18:37:50;33.77;;;13.43;;
36995;SDS011;22905;50.340;10.776;2024-01-27T18:42:51;54.30;;;21.37;;
36995;SDS011;22905;50.340;10.776;2024-01-27T18:47:51;58.13;;;25.83;;
36995;SDS011;22905;50.340;10.776;2024-01-27T18:52:51;50.78;;;22.50;;
36995;SDS011;22905;50.340;10.776;2024-01-27T18:57:53;40.63;;;19.23;;
36995;SDS011;22905;50.340;10.776;2024-01-27T19:02:53;52.28;;;21.83;;
36995;SDS011;22905;50.340;10.776;2024-01-27T19:07:54;54.63;;;21.42;;
36995;SDS011;22905;50.340;10.776;2024-01-27T19:12:54;55.33;;;25.48;;
36995;SDS011;22905;50.340;10.776;2024-01-27T19:17:54;78.40;;;34.42;;
36995;SDS011;22905;50.340;10.776;2024-01-27T19:22:54;71.03;;;28.90;;
36995;SDS011;22905;50.340;10.776;2024-01-27T19:27:55;56.22;;;24.27;;
36995;SDS011;22905;50.340;10.776;2024-01-27T19:32:55;72.03;;;30.25;;
36995;SDS011;22905;50.340;10.776;2024-01-27T19:37:56;65.57;;;24.10;;
36995;SDS011;22905;50.340;10.776;2024-01-27T19:42:58;76.37;;;24.17;;
36995;SDS011;22905;50.340;10.776;2024-01-27T19:47:58;53.03;;;20.75;;
36995;SDS011;22905;50.340;10.776;2024-01-27T19:52:58;92.07;;;33.57;;
36995;SDS011;22905;50.340;10.776;2024-01-27T19:57:59;85.00;;;30.13;;
36995;SDS011;22905;50.340;10.776;2024-01-27T20:02:59;102.72;;;32.75;;
36995;SDS011;22905;50.340;10.776;2024-01-27T20:08:01;81.78;;;33.35;;
36995;SDS011;22905;50.340;10.776;2024-01-27T20:13:01;95.90;;;37.97;;
36995;SDS011;22905;50.340;10.776;2024-01-27T20:23:04;101.80;;;39.83;;
36995;SDS011;22905;50.340;10.776;2024-01-27T20:28:05;195.05;;;64.25;;
36995;SDS011;22905;50.340;10.776;2024-01-27T20:33:06;62.05;;;27.45;;
36995;SDS011;22905;50.340;10.776;2024-01-27T20:38:07;45.25;;;18.02;;
36995;SDS011;22905;50.340;10.776;2024-01-27T20:43:08;56.88;;;20.50;;
36995;SDS011;22905;50.340;10.776;2024-01-27T20:48:08;64.60;;;24.77;;
36995;SDS011;22905;50.340;10.776;2024-01-27T20:53:13;47.92;;;18.60;;
36995;SDS011;22905;50.340;10.776;2024-01-27T20:58:13;32.97;;;18.40;;
36995;SDS011;22905;50.340;10.776;2024-01-27T21:03:13;63.05;;;27.90;;
36995;SDS011;22905;50.340;10.776;2024-01-27T21:08:14;58.90;;;24.98;;
36995;SDS011;22905;50.340;10.776;2024-01-27T21:13:14;83.10;;;26.42;;
36995;SDS011;22905;50.340;10.776;2024-01-27T21:18:15;75.32;;;24.15;;
36995;SDS011;22905;50.340;10.776;2024-01-27T21:23:15;70.47;;;23.15;;
36995;SDS011;22905;50.340;10.776;2024-01-27T21:28:16;58.22;;;20.27;;
36995;SDS011;22905;50.340;10.776;2024-01-27T21:33:16;50.42;;;17.88;;
36995;SDS011;22905;50.340;10.776;2024-01-27T21:38:16;38.03;;;15.50;;
36995;SDS011;22905;50.340;10.776;2024-01-27T21:43:17;37.47;;;17.23;;
36995;SDS011;22905;50.340;10.776;2024-01-27T21:48:17;36.47;;;16.27;;
36995;SDS011;22905;50.340;10.776;2024-01-27T21:53:17;43.70;;;16.88;;
36995;SDS011;22905;50.340;10.776;2024-01-27T21:58:17;42.13;;;15.95;;
36995;SDS011;22905;50.340;10.776;2024-01-27T22:03:18;46.27;;;17.47;;
36995;SDS011;22905;50.340;10.776;2024-01-27T22:08:18;66.80;;;24.58;;
36995;SDS011;22905;50.340;10.776;2024-01-27T22:13:18;65.63;;;27.13;;
36995;SDS011;22905;50.340;10.776;2024-01-27T22:18:19;83.03;;;31.35;;
36995;SDS011;22905;50.340;10.776;2024-01-27T22:23:19;67.13;;;26.55;;
36995;SDS011;22905;50.340;10.776;2024-01-27T22:28:21;62.03;;;25.20;;
36995;SDS011;22905;50.340;10.776;2024-01-27T22:33:21;50.15;;;22.63;;
36995;SDS011;22905;50.340;10.776;2024-01-27T22:38:23;54.97;;;20.40;;
36995;SDS011;22905;50.340;10.776;2024-01-27T22:43:23;40.65;;;15.63;;
36995;SDS011;22905;50.340;10.776;2024-01-27T22:48:23;35.50;;;13.45;;
36995;SDS011;22905;50.340;10.776;2024-01-27T22:53:24;26.40;;;13.17;;
36995;SDS011;22905;50.340;10.776;2024-01-27T22:58:24;28.33;;;12.95;;
36995;SDS011;22905;50.340;10.776;2024-01-27T23:03:25;48.60;;;16.00;;
36995;SDS011;22905;50.340;10.776;2024-01-27T23:08:25;33.70;;;17.42;;
36995;SDS011;22905;50.340;10.776;2024-01-27T23:13:25;39.20;;;16.93;;
36995;SDS011;22905;50.340;10.776;2024-01-27T23:18:26;38.70;;;15.18;;
36995;SDS011;22905;50.340;10.776;2024-01-27T23:23:26;35.38;;;15.43;;
36995;SDS011;22905;50.340;10.776;2024-01-27T23:28:26;29.83;;;15.03;;
36995;SDS011;22905;50.340;10.776;2024-01-27T23:33:26;39.83;;;14.70;;
36995;SDS011;22905;50.340;10.776;2024-01-27T23:38:27;38.40;;;14.70;;
36995;SDS011;22905;50.340;10.776;2024-01-27T23:43:27;30.38;;;14.32;;
36995;SDS011;22905;50.340;10.776;2024-01-27T23:48:27;36.55;;;14.82;;
36995;SDS011;22905;50.340;10.776;2024-01-27T23:53:28;38.20;;;14.95;;
36995;SDS011;22905;50.340;10.776;2024-01-27T23:58:28;41.03;;;14.20;;
